sensor_id;sensor_type;location;lat;lon;timestamp;temperature;humidity
3312;DHT22;1668;49.648;8.570;2023-04-01T00:01:41;10.60;1.00
3312;DHT22;1668;49.648;8.570;2023-04-01T00:04:08;10.60;1.00
3312;DHT22;1668;49.648;8.570;2023-04-01T00:06:35;10.70;1.00
3312;DHT22;1668;49.648;8.570;2023-04-01T00:09:03;10.70;1.00
3312;DHT22;1668;49.648;8.570;2023-04-01T00:11:30;10.70;1.00
3312;DHT22;1668;49.648;8.570;2023-04-01T00:13:57;10.70;1.00
3312;DHT22;1668;49.648;8.570;2023-04-01T00:16:24;10.70;1.00
3312;DHT22;1668;49.648;8.570;2023-04-01T00:18:51;10.70;99.90
3312;DHT22;1668;49.648;8.570;2023-04-01T00:21:18;10.70;1.00
3312;DHT22;1668;49.648;8.570;2023-04-01T00:23:46;10.70;1.00
3312;DHT22;1668;49.648;8.570;2023-04-01T00:26:14;10.70;99.90
3312;DHT22;1668;49.648;8.570;2023-04-01T00:28:44;10.70;99.90
3312;DHT22;1668;49.648;8.570;2023-04-01T00:31:12;10.70;99.90
3312;DHT22;1668;49.648;8.570;2023-04-01T00:33:39;10.70;99.90
3312;DHT22;1668;49.648;8.570;2023-04-01T00:36:09;10.70;99.90
3312;DHT22;1668;49.648;8.570;2023-04-01T00:38:36;10.70;99.90
3312;DHT22;1668;49.648;8.570;2023-04-01T00:41:03;10.70;99.90
3312;DHT22;1668;49.648;8.570;2023-04-01T00:43:32;10.70;95.80
3312;DHT22;1668;49.648;8.570;2023-04-01T00:45:59;10.80;99.90
3312;DHT22;1668;49.648;8.570;2023-04-01T00:48:28;10.70;1.00
3312;DHT22;1668;49.648;8.570;2023-04-01T00:50:59;10.70;1.00
3312;DHT22;1668;49.648;8.570;2023-04-01T00:53:28;10.70;1.00
3312;DHT22;1668;49.648;8.570;2023-04-01T00:56:00;10.70;1.00
3312;DHT22;1668;49.648;8.570;2023-04-01T00:58:29;10.70;1.00
3312;DHT22;1668;49.648;8.570;2023-04-01T01:00:59;10.70;1.00
3312;DHT22;1668;49.648;8.570;2023-04-01T01:03:27;10.70;1.00
3312;DHT22;1668;49.648;8.570;2023-04-01T01:06:19;10.70;99.90
3312;DHT22;1668;49.648;8.570;2023-04-01T01:08:59;10.70;1.00
3312;DHT22;1668;49.648;8.570;2023-04-01T01:11:35;10.60;1.00
3312;DHT22;1668;49.648;8.570;2023-04-01T01:14:09;10.60;1.00
3312;DHT22;1668;49.648;8.570;2023-04-01T01:16:43;10.70;1.00
3312;DHT22;1668;49.648;8.570;2023-04-01T01:22:35;10.70;99.90
3312;DHT22;1668;49.648;8.570;2023-04-01T01:25:14;10.60;99.90
3312;DHT22;1668;49.648;8.570;2023-04-01T01:27:48;10.70;99.90
3312;DHT22;1668;49.648;8.570;2023-04-01T01:30:37;10.70;99.90
3312;DHT22;1668;49.648;8.570;2023-04-01T01:33:19;10.70;99.90
3312;DHT22;1668;49.648;8.570;2023-04-01T01:35:49;10.70;99.90
3312;DHT22;1668;49.648;8.570;2023-04-01T01:38:18;10.70;99.90
3312;DHT22;1668;49.648;8.570;2023-04-01T01:40:49;10.70;99.90
3312;DHT22;1668;49.648;8.570;2023-04-01T01:43:22;10.60;99.90
3312;DHT22;1668;49.648;8.570;2023-04-01T01:45:52;10.70;30.40
3312;DHT22;1668;49.648;8.570;2023-04-01T01:48:21;10.70;99.90
3312;DHT22;1668;49.648;8.570;2023-04-01T01:50:50;10.60;99.90
3312;DHT22;1668;49.648;8.570;2023-04-01T01:53:17;10.60;99.90
3312;DHT22;1668;49.648;8.570;2023-04-01T01:55:45;10.60;99.90
3312;DHT22;1668;49.648;8.570;2023-04-01T01:58:17;10.60;99.90
3312;DHT22;1668;49.648;8.570;2023-04-01T02:00:49;10.60;99.90
3312;DHT22;1668;49.648;8.570;2023-04-01T02:03:17;10.60;99.90
3312;DHT22;1668;49.648;8.570;2023-04-01T02:05:46;10.60;99.90
3312;DHT22;1668;49.648;8.570;2023-04-01T02:08:17;10.60;99.90
3312;DHT22;1668;49.648;8.570;2023-04-01T02:10:52;10.60;99.90
3312;DHT22;1668;49.648;8.570;2023-04-01T02:13:25;10.60;99.90
3312;DHT22;1668;49.648;8.570;2023-04-01T02:15:56;10.60;99.90
3312;DHT22;1668;49.648;8.570;2023-04-01T02:18:26;10.60;99.90
3312;DHT22;1668;49.648;8.570;2023-04-01T02:20:56;10.50;99.90
3312;DHT22;1668;49.648;8.570;2023-04-01T02:23:25;10.50;99.90
3312;DHT22;1668;49.648;8.570;2023-04-01T02:25:53;10.60;99.90
3312;DHT22;1668;49.648;8.570;2023-04-01T02:28:21;10.50;99.90
3312;DHT22;1668;49.648;8.570;2023-04-01T02:30:50;10.50;99.90
3312;DHT22;1668;49.648;8.570;2023-04-01T02:33:17;10.50;99.90
3312;DHT22;1668;49.648;8.570;2023-04-01T02:35:45;10.50;99.90
3312;DHT22;1668;49.648;8.570;2023-04-01T02:38:12;10.50;99.90
3312;DHT22;1668;49.648;8.570;2023-04-01T02:40:45;10.50;99.90
3312;DHT22;1668;49.648;8.570;2023-04-01T02:43:12;10.50;99.90
3312;DHT22;1668;49.648;8.570;2023-04-01T02:45:39;10.50;1.00
3312;DHT22;1668;49.648;8.570;2023-04-01T02:48:06;10.40;1.00
3312;DHT22;1668;49.648;8.570;2023-04-01T02:50:32;10.40;1.00
3312;DHT22;1668;49.648;8.570;2023-04-01T02:53:00;10.40;1.00
3312;DHT22;1668;49.648;8.570;2023-04-01T02:55:28;10.40;1.00
3312;DHT22;1668;49.648;8.570;2023-04-01T02:57:57;10.40;39.40
3312;DHT22;1668;49.648;8.570;2023-04-01T03:00:24;10.30;99.90
3312;DHT22;1668;49.648;8.570;2023-04-01T03:02:51;10.30;99.90
3312;DHT22;1668;49.648;8.570;2023-04-01T03:05:19;10.30;99.90
3312;DHT22;1668;49.648;8.570;2023-04-01T03:07:46;10.30;99.90
3312;DHT22;1668;49.648;8.570;2023-04-01T03:10:12;10.20;99.90
3312;DHT22;1668;49.648;8.570;2023-04-01T03:12:40;10.20;99.90
3312;DHT22;1668;49.648;8.570;2023-04-01T03:15:10;10.20;99.90
3312;DHT22;1668;49.648;8.570;2023-04-01T03:17:37;10.20;99.90
3312;DHT22;1668;49.648;8.570;2023-04-01T03:20:05;10.20;99.90
3312;DHT22;1668;49.648;8.570;2023-04-01T03:22:34;10.20;99.90
3312;DHT22;1668;49.648;8.570;2023-04-01T03:25:01;10.30;99.90
3312;DHT22;1668;49.648;8.570;2023-04-01T03:27:28;10.20;99.90
3312;DHT22;1668;49.648;8.570;2023-04-01T03:29:55;10.30;99.90
3312;DHT22;1668;49.648;8.570;2023-04-01T03:32:23;10.30;99.90
3312;DHT22;1668;49.648;8.570;2023-04-01T03:34:50;10.20;99.90
3312;DHT22;1668;49.648;8.570;2023-04-01T03:37:17;10.30;99.90
3312;DHT22;1668;49.648;8.570;2023-04-01T03:39:44;10.20;1.00
3312;DHT22;1668;49.648;8.570;2023-04-01T03:42:11;10.20;99.90
3312;DHT22;1668;49.648;8.570;2023-04-01T03:44:38;10.30;1.00
3312;DHT22;1668;49.648;8.570;2023-04-01T03:47:05;10.20;1.00
3312;DHT22;1668;49.648;8.570;2023-04-01T03:49:36;10.20;1.00
3312;DHT22;1668;49.648;8.570;2023-04-01T03:52:03;10.30;1.00
3312;DHT22;1668;49.648;8.570;2023-04-01T03:54:30;10.30;1.00
3312;DHT22;1668;49.648;8.570;2023-04-01T03:56:57;10.20;1.00
3312;DHT22;1668;49.648;8.570;2023-04-01T03:59:24;10.20;1.00
3312;DHT22;1668;49.648;8.570;2023-04-01T04:01:51;10.20;69.50
3312;DHT22;1668;49.648;8.570;2023-04-01T04:04:18;10.20;99.90
3312;DHT22;1668;49.648;8.570;2023-04-01T04:06:46;10.20;99.90
3312;DHT22;1668;49.648;8.570;2023-04-01T04:09:13;10.20;99.90
3312;DHT22;1668;49.648;8.570;2023-04-01T04:11:40;10.20;1.00
3312;DHT22;1668;49.648;8.570;2023-04-01T04:14:07;10.20;1.00
3312;DHT22;1668;49.648;8.570;2023-04-01T04:16:35;10.20;99.90
3312;DHT22;1668;49.648;8.570;2023-04-01T04:19:03;10.20;1.00
3312;DHT22;1668;49.648;8.570;2023-04-01T04:21:30;10.20;1.00
3312;DHT22;1668;49.648;8.570;2023-04-01T04:23:58;10.20;1.00
3312;DHT22;1668;49.648;8.570;2023-04-01T04:26:25;10.20;99.90
3312;DHT22;1668;49.648;8.570;2023-04-01T04:28:53;10.10;1.00
3312;DHT22;1668;49.648;8.570;2023-04-01T04:31:21;10.10;99.90
3312;DHT22;1668;49.648;8.570;2023-04-01T04:33:49;10.10;99.90
3312;DHT22;1668;49.648;8.570;2023-04-01T04:36:17;10.20;99.90
3312;DHT22;1668;49.648;8.570;2023-04-01T04:38:44;10.20;99.90
3312;DHT22;1668;49.648;8.570;2023-04-01T04:41:13;10.20;72.60
3312;DHT22;1668;49.648;8.570;2023-04-01T04:43:41;10.20;99.90
3312;DHT22;1668;49.648;8.570;2023-04-01T04:46:08;10.20;1.00
3312;DHT22;1668;49.648;8.570;2023-04-01T04:48:35;10.20;1.00
3312;DHT22;1668;49.648;8.570;2023-04-01T04:51:02;10.20;1.00
3312;DHT22;1668;49.648;8.570;2023-04-01T04:53:30;10.20;99.90
3312;DHT22;1668;49.648;8.570;2023-04-01T04:55:57;10.20;99.90
3312;DHT22;1668;49.648;8.570;2023-04-01T04:58:25;10.20;38.00
3312;DHT22;1668;49.648;8.570;2023-04-01T05:00:52;10.20;55.20
3312;DHT22;1668;49.648;8.570;2023-04-01T05:03:19;10.20;99.90
3312;DHT22;1668;49.648;8.570;2023-04-01T05:05:50;10.20;99.90
3312;DHT22;1668;49.648;8.570;2023-04-01T05:08:17;10.20;99.90
3312;DHT22;1668;49.648;8.570;2023-04-01T05:10:47;10.20;20.70
3312;DHT22;1668;49.648;8.570;2023-04-01T05:13:14;10.20;2.20
3312;DHT22;1668;49.648;8.570;2023-04-01T05:15:42;10.20;99.90
3312;DHT22;1668;49.648;8.570;2023-04-01T05:18:09;10.20;99.90
3312;DHT22;1668;49.648;8.570;2023-04-01T05:20:35;10.20;99.90
3312;DHT22;1668;49.648;8.570;2023-04-01T05:23:02;10.20;1.00
3312;DHT22;1668;49.648;8.570;2023-04-01T05:25:29;10.20;1.00
3312;DHT22;1668;49.648;8.570;2023-04-01T05:27:56;10.20;99.90
3312;DHT22;1668;49.648;8.570;2023-04-01T05:30:23;10.20;1.00
3312;DHT22;1668;49.648;8.570;2023-04-01T05:32:51;10.20;8.00
3312;DHT22;1668;49.648;8.570;2023-04-01T05:35:19;10.20;92.50
3312;DHT22;1668;49.648;8.570;2023-04-01T05:37:45;10.20;1.00
3312;DHT22;1668;49.648;8.570;2023-04-01T05:40:12;10.20;99.90
3312;DHT22;1668;49.648;8.570;2023-04-01T05:42:39;10.20;99.90
3312;DHT22;1668;49.648;8.570;2023-04-01T05:45:07;10.20;1.00
3312;DHT22;1668;49.648;8.570;2023-04-01T05:47:34;10.20;1.00
3312;DHT22;1668;49.648;8.570;2023-04-01T05:50:03;10.10;1.00
3312;DHT22;1668;49.648;8.570;2023-04-01T05:52:30;10.10;1.00
3312;DHT22;1668;49.648;8.570;2023-04-01T05:54:56;10.20;99.90
3312;DHT22;1668;49.648;8.570;2023-04-01T05:57:24;10.20;1.00
3312;DHT22;1668;49.648;8.570;2023-04-01T05:59:51;10.20;1.00
3312;DHT22;1668;49.648;8.570;2023-04-01T06:02:18;10.20;99.90
3312;DHT22;1668;49.648;8.570;2023-04-01T06:04:45;10.20;99.90
3312;DHT22;1668;49.648;8.570;2023-04-01T06:07:15;10.10;99.90
3312;DHT22;1668;49.648;8.570;2023-04-01T06:09:42;10.10;99.90
3312;DHT22;1668;49.648;8.570;2023-04-01T06:12:29;10.10;8.60
3312;DHT22;1668;49.648;8.570;2023-04-01T06:15:13;10.20;1.00
3312;DHT22;1668;49.648;8.570;2023-04-01T06:18:13;10.20;99.90
3312;DHT22;1668;49.648;8.570;2023-04-01T06:20:53;10.20;1.00
3312;DHT22;1668;49.648;8.570;2023-04-01T06:23:35;10.20;94.70
3312;DHT22;1668;49.648;8.570;2023-04-01T06:26:27;10.20;1.00
3312;DHT22;1668;49.648;8.570;2023-04-01T06:29:14;10.20;1.00
3312;DHT22;1668;49.648;8.570;2023-04-01T06:32:01;10.20;99.90
3312;DHT22;1668;49.648;8.570;2023-04-01T06:34:47;10.20;1.00
3312;DHT22;1668;49.648;8.570;2023-04-01T06:37:27;10.20;99.90
3312;DHT22;1668;49.648;8.570;2023-04-01T06:40:09;10.20;99.90
3312;DHT22;1668;49.648;8.570;2023-04-01T06:42:57;10.20;99.90
3312;DHT22;1668;49.648;8.570;2023-04-01T06:45:36;10.20;1.00
3312;DHT22;1668;49.648;8.570;2023-04-01T06:48:26;10.20;99.90
3312;DHT22;1668;49.648;8.570;2023-04-01T06:51:02;10.10;99.90
3312;DHT22;1668;49.648;8.570;2023-04-01T06:53:39;10.20;99.90
3312;DHT22;1668;49.648;8.570;2023-04-01T06:56:10;10.10;1.00
3312;DHT22;1668;49.648;8.570;2023-04-01T06:58:41;10.10;1.00
3312;DHT22;1668;49.648;8.570;2023-04-01T07:01:12;10.10;1.00
3312;DHT22;1668;49.648;8.570;2023-04-01T07:03:44;10.10;1.00
3312;DHT22;1668;49.648;8.570;2023-04-01T07:06:16;10.10;99.90
3312;DHT22;1668;49.648;8.570;2023-04-01T07:08:45;10.20;1.00
3312;DHT22;1668;49.648;8.570;2023-04-01T07:11:22;10.20;1.00
3312;DHT22;1668;49.648;8.570;2023-04-01T07:13:54;10.20;1.00
3312;DHT22;1668;49.648;8.570;2023-04-01T07:16:26;10.20;1.00
3312;DHT22;1668;49.648;8.570;2023-04-01T07:18:59;10.20;1.00
3312;DHT22;1668;49.648;8.570;2023-04-01T07:21:30;10.20;99.90
3312;DHT22;1668;49.648;8.570;2023-04-01T07:24:05;10.20;99.90
3312;DHT22;1668;49.648;8.570;2023-04-01T07:26:33;10.30;99.90
3312;DHT22;1668;49.648;8.570;2023-04-01T07:29:00;10.30;99.90
3312;DHT22;1668;49.648;8.570;2023-04-01T07:31:45;10.30;1.00
3312;DHT22;1668;49.648;8.570;2023-04-01T07:34:21;10.30;1.00
3312;DHT22;1668;49.648;8.570;2023-04-01T07:36:54;10.30;99.90
3312;DHT22;1668;49.648;8.570;2023-04-01T07:39:36;10.30;1.00
3312;DHT22;1668;49.648;8.570;2023-04-01T07:42:15;10.30;1.00
3312;DHT22;1668;49.648;8.570;2023-04-01T07:44:50;10.30;1.00
3312;DHT22;1668;49.648;8.570;2023-04-01T07:47:33;10.40;1.00
3312;DHT22;1668;49.648;8.570;2023-04-01T07:50:13;10.40;99.90
3312;DHT22;1668;49.648;8.570;2023-04-01T07:52:50;10.40;1.00
3312;DHT22;1668;49.648;8.570;2023-04-01T07:55:23;10.40;99.90
3312;DHT22;1668;49.648;8.570;2023-04-01T07:58:00;10.40;19.80
3312;DHT22;1668;49.648;8.570;2023-04-01T08:00:36;10.40;4.30
3312;DHT22;1668;49.648;8.570;2023-04-01T08:03:31;10.40;99.90
3312;DHT22;1668;49.648;8.570;2023-04-01T08:06:04;10.40;1.00
3312;DHT22;1668;49.648;8.570;2023-04-01T08:08:43;10.40;1.00
3312;DHT22;1668;49.648;8.570;2023-04-01T08:11:22;10.40;1.00
3312;DHT22;1668;49.648;8.570;2023-04-01T08:14:00;10.40;1.00
3312;DHT22;1668;49.648;8.570;2023-04-01T08:16:35;10.40;99.90
3312;DHT22;1668;49.648;8.570;2023-04-01T08:19:09;10.40;1.00
3312;DHT22;1668;49.648;8.570;2023-04-01T08:21:43;10.40;1.00
3312;DHT22;1668;49.648;8.570;2023-04-01T08:24:17;10.40;1.00
3312;DHT22;1668;49.648;8.570;2023-04-01T08:26:49;10.40;31.00
3312;DHT22;1668;49.648;8.570;2023-04-01T08:29:22;10.40;1.00
3312;DHT22;1668;49.648;8.570;2023-04-01T08:31:53;10.40;1.00
3312;DHT22;1668;49.648;8.570;2023-04-01T08:34:25;10.40;1.00
3312;DHT22;1668;49.648;8.570;2023-04-01T08:36:58;10.40;1.00
3312;DHT22;1668;49.648;8.570;2023-04-01T08:39:29;10.40;99.90
3312;DHT22;1668;49.648;8.570;2023-04-01T08:42:16;10.40;99.90
3312;DHT22;1668;49.648;8.570;2023-04-01T08:45:18;10.40;1.00
3312;DHT22;1668;49.648;8.570;2023-04-01T08:47:55;10.40;99.90
3312;DHT22;1668;49.648;8.570;2023-04-01T08:50:52;10.40;99.90
3312;DHT22;1668;49.648;8.570;2023-04-01T08:53:33;10.50;99.90
3312;DHT22;1668;49.648;8.570;2023-04-01T08:56:09;10.50;99.90
3312;DHT22;1668;49.648;8.570;2023-04-01T08:58:59;10.50;99.90
3312;DHT22;1668;49.648;8.570;2023-04-01T09:04:49;10.60;99.90
3312;DHT22;1668;49.648;8.570;2023-04-01T09:07:32;10.60;99.90
3312;DHT22;1668;49.648;8.570;2023-04-01T09:10:23;10.60;1.00
3312;DHT22;1668;49.648;8.570;2023-04-01T09:13:20;10.60;1.00
3312;DHT22;1668;49.648;8.570;2023-04-01T09:16:22;10.60;99.90
3312;DHT22;1668;49.648;8.570;2023-04-01T09:19:22;10.70;1.00
3312;DHT22;1668;49.648;8.570;2023-04-01T09:22:19;10.70;1.00
3312;DHT22;1668;49.648;8.570;2023-04-01T09:25:13;10.70;99.90
3312;DHT22;1668;49.648;8.570;2023-04-01T09:27:45;10.70;1.00
3312;DHT22;1668;49.648;8.570;2023-04-01T09:30:32;10.70;1.00
3312;DHT22;1668;49.648;8.570;2023-04-01T09:36:31;10.70;30.40
3312;DHT22;1668;49.648;8.570;2023-04-01T09:39:09;10.70;99.90
3312;DHT22;1668;49.648;8.570;2023-04-01T09:41:50;10.70;99.90
3312;DHT22;1668;49.648;8.570;2023-04-01T09:44:25;10.80;99.90
3312;DHT22;1668;49.648;8.570;2023-04-01T09:47:10;10.70;99.90
3312;DHT22;1668;49.648;8.570;2023-04-01T09:49:59;10.80;1.00
3312;DHT22;1668;49.648;8.570;2023-04-01T09:52:38;10.70;1.00
3312;DHT22;1668;49.648;8.570;2023-04-01T09:55:41;10.80;1.00
3312;DHT22;1668;49.648;8.570;2023-04-01T09:58:37;10.70;1.00
3312;DHT22;1668;49.648;8.570;2023-04-01T10:01:35;10.80;1.00
3312;DHT22;1668;49.648;8.570;2023-04-01T10:04:40;10.80;1.00
3312;DHT22;1668;49.648;8.570;2023-04-01T10:10:48;10.80;1.00
3312;DHT22;1668;49.648;8.570;2023-04-01T10:16:56;10.80;25.90
3312;DHT22;1668;49.648;8.570;2023-04-01T10:22:51;10.90;10.60
3312;DHT22;1668;49.648;8.570;2023-04-01T10:25:55;10.90;22.50
3312;DHT22;1668;49.648;8.570;2023-04-01T10:28:48;10.90;99.90
3312;DHT22;1668;49.648;8.570;2023-04-01T10:31:41;11.00;99.90
3312;DHT22;1668;49.648;8.570;2023-04-01T10:34:32;11.00;1.00
3312;DHT22;1668;49.648;8.570;2023-04-01T10:37:13;11.00;1.00
3312;DHT22;1668;49.648;8.570;2023-04-01T10:55:43;11.30;1.00
3312;DHT22;1668;49.648;8.570;2023-04-01T10:58:41;11.30;99.90
3312;DHT22;1668;49.648;8.570;2023-04-01T11:01:27;11.30;51.80
3312;DHT22;1668;49.648;8.570;2023-04-01T11:04:32;11.30;99.90
3312;DHT22;1668;49.648;8.570;2023-04-01T11:07:40;11.40;99.90
3312;DHT22;1668;49.648;8.570;2023-04-01T11:10:33;11.30;1.00
3312;DHT22;1668;49.648;8.570;2023-04-01T11:13:40;11.30;1.00
3312;DHT22;1668;49.648;8.570;2023-04-01T11:16:51;11.30;99.90
3312;DHT22;1668;49.648;8.570;2023-04-01T11:19:49;11.20;99.90
3312;DHT22;1668;49.648;8.570;2023-04-01T11:22:53;11.20;99.90
3312;DHT22;1668;49.648;8.570;2023-04-01T11:25:54;11.20;99.90
3312;DHT22;1668;49.648;8.570;2023-04-01T11:28:54;11.20;99.90
3312;DHT22;1668;49.648;8.570;2023-04-01T11:31:37;11.20;99.90
3312;DHT22;1668;49.648;8.570;2023-04-01T11:34:27;11.20;99.90
3312;DHT22;1668;49.648;8.570;2023-04-01T11:37:06;11.20;89.30
3312;DHT22;1668;49.648;8.570;2023-04-01T11:39:44;11.20;99.90
3312;DHT22;1668;49.648;8.570;2023-04-01T11:42:20;11.30;1.00
3312;DHT22;1668;49.648;8.570;2023-04-01T11:44:58;11.30;1.00
3312;DHT22;1668;49.648;8.570;2023-04-01T11:47:51;11.30;1.00
3312;DHT22;1668;49.648;8.570;2023-04-01T11:50:26;11.30;1.00
3312;DHT22;1668;49.648;8.570;2023-04-01T11:53:13;11.30;1.00
3312;DHT22;1668;49.648;8.570;2023-04-01T11:55:59;11.30;99.90
3312;DHT22;1668;49.648;8.570;2023-04-01T11:58:41;11.30;99.90
3312;DHT22;1668;49.648;8.570;2023-04-01T12:01:23;11.40;1.00
3312;DHT22;1668;49.648;8.570;2023-04-01T12:04:17;11.40;99.90
3312;DHT22;1668;49.648;8.570;2023-04-01T12:06:48;11.40;1.00
3312;DHT22;1668;49.648;8.570;2023-04-01T12:09:22;11.40;99.90
3312;DHT22;1668;49.648;8.570;2023-04-01T12:12:00;11.50;99.90
3312;DHT22;1668;49.648;8.570;2023-04-01T12:14:37;11.50;99.90
3312;DHT22;1668;49.648;8.570;2023-04-01T12:17:16;11.50;1.00
3312;DHT22;1668;49.648;8.570;2023-04-01T12:19:50;11.50;1.00
3312;DHT22;1668;49.648;8.570;2023-04-01T12:22:36;11.60;29.10
3312;DHT22;1668;49.648;8.570;2023-04-01T12:25:16;11.60;99.90
3312;DHT22;1668;49.648;8.570;2023-04-01T12:27:53;11.60;1.00
3312;DHT22;1668;49.648;8.570;2023-04-01T12:30:35;11.70;1.00
3312;DHT22;1668;49.648;8.570;2023-04-01T12:33:32;11.60;99.90
3312;DHT22;1668;49.648;8.570;2023-04-01T12:36:09;11.60;99.90
3312;DHT22;1668;49.648;8.570;2023-04-01T12:38:51;11.60;68.70
3312;DHT22;1668;49.648;8.570;2023-04-01T12:41:29;11.60;99.90
3312;DHT22;1668;49.648;8.570;2023-04-01T12:44:23;11.60;1.00
3312;DHT22;1668;49.648;8.570;2023-04-01T12:47:06;11.70;1.00
3312;DHT22;1668;49.648;8.570;2023-04-01T12:49:54;11.70;1.00
3312;DHT22;1668;49.648;8.570;2023-04-01T12:52:32;11.70;1.00
3312;DHT22;1668;49.648;8.570;2023-04-01T12:55:34;11.70;1.00
3312;DHT22;1668;49.648;8.570;2023-04-01T12:58:41;11.80;1.00
3312;DHT22;1668;49.648;8.570;2023-04-01T13:01:49;11.80;1.00
3312;DHT22;1668;49.648;8.570;2023-04-01T13:04:47;11.80;1.00
3312;DHT22;1668;49.648;8.570;2023-04-01T13:10:20;11.80;99.90
3312;DHT22;1668;49.648;8.570;2023-04-01T13:15:43;11.80;99.90
3312;DHT22;1668;49.648;8.570;2023-04-01T13:18:23;11.80;1.00
3312;DHT22;1668;49.648;8.570;2023-04-01T13:21:03;11.90;1.00
3312;DHT22;1668;49.648;8.570;2023-04-01T13:23:49;11.80;99.90
3312;DHT22;1668;49.648;8.570;2023-04-01T13:26:26;11.90;1.00
3312;DHT22;1668;49.648;8.570;2023-04-01T13:28:59;11.90;99.90
3312;DHT22;1668;49.648;8.570;2023-04-01T13:31:44;11.90;99.90
3312;DHT22;1668;49.648;8.570;2023-04-01T13:34:30;11.90;99.90
3312;DHT22;1668;49.648;8.570;2023-04-01T13:37:11;11.90;99.90
3312;DHT22;1668;49.648;8.570;2023-04-01T13:39:52;11.90;1.00
3312;DHT22;1668;49.648;8.570;2023-04-01T13:42:25;11.90;99.90
3312;DHT22;1668;49.648;8.570;2023-04-01T13:44:56;11.90;1.00
3312;DHT22;1668;49.648;8.570;2023-04-01T13:56:48;11.80;99.90
3312;DHT22;1668;49.648;8.570;2023-04-01T13:59:41;11.80;1.00
3312;DHT22;1668;49.648;8.570;2023-04-01T14:02:31;11.80;99.90
3312;DHT22;1668;49.648;8.570;2023-04-01T14:05:14;11.80;1.00
3312;DHT22;1668;49.648;8.570;2023-04-01T14:07:55;11.70;99.90
3312;DHT22;1668;49.648;8.570;2023-04-01T14:10:30;11.60;99.90
3312;DHT22;1668;49.648;8.570;2023-04-01T14:13:06;11.60;1.00
3312;DHT22;1668;49.648;8.570;2023-04-01T14:15:43;11.60;1.00
3312;DHT22;1668;49.648;8.570;2023-04-01T14:21:30;11.50;1.00
3312;DHT22;1668;49.648;8.570;2023-04-01T14:24:19;11.50;1.00
3312;DHT22;1668;49.648;8.570;2023-04-01T14:27:11;11.50;1.00
3312;DHT22;1668;49.648;8.570;2023-04-01T14:29:52;11.60;1.00
3312;DHT22;1668;49.648;8.570;2023-04-01T14:32:30;11.60;1.00
3312;DHT22;1668;49.648;8.570;2023-04-01T14:35:18;11.50;99.90
3312;DHT22;1668;49.648;8.570;2023-04-01T14:38:26;11.50;1.00
3312;DHT22;1668;49.648;8.570;2023-04-01T14:40:58;11.50;1.00
3312;DHT22;1668;49.648;8.570;2023-04-01T14:43:48;11.50;99.90
3312;DHT22;1668;49.648;8.570;2023-04-01T14:46:45;11.50;99.90
3312;DHT22;1668;49.648;8.570;2023-04-01T14:49:20;11.60;1.00
3312;DHT22;1668;49.648;8.570;2023-04-01T14:51:48;11.60;1.00
3312;DHT22;1668;49.648;8.570;2023-04-01T14:54:20;11.60;99.90
3312;DHT22;1668;49.648;8.570;2023-04-01T14:56:50;11.60;99.90
3312;DHT22;1668;49.648;8.570;2023-04-01T14:59:27;11.60;99.90
3312;DHT22;1668;49.648;8.570;2023-04-01T15:02:01;11.60;27.60
3312;DHT22;1668;49.648;8.570;2023-04-01T15:04:44;11.60;1.00
3312;DHT22;1668;49.648;8.570;2023-04-01T15:10:34;11.50;99.90
3312;DHT22;1668;49.648;8.570;2023-04-01T15:13:13;11.50;11.00
3312;DHT22;1668;49.648;8.570;2023-04-01T15:15:54;11.50;1.00
3312;DHT22;1668;49.648;8.570;2023-04-01T15:18:27;11.50;99.90
3312;DHT22;1668;49.648;8.570;2023-04-01T15:21:20;11.50;99.90
3312;DHT22;1668;49.648;8.570;2023-04-01T15:23:57;11.50;99.90
3312;DHT22;1668;49.648;8.570;2023-04-01T15:26:50;11.50;1.00
3312;DHT22;1668;49.648;8.570;2023-04-01T15:29:47;11.50;18.70
3312;DHT22;1668;49.648;8.570;2023-04-01T15:32:28;11.60;1.00
3312;DHT22;1668;49.648;8.570;2023-04-01T15:35:03;11.50;1.00
3312;DHT22;1668;49.648;8.570;2023-04-01T15:37:40;11.60;51.40
3312;DHT22;1668;49.648;8.570;2023-04-01T15:40:19;11.60;1.00
3312;DHT22;1668;49.648;8.570;2023-04-01T15:42:59;11.70;99.90
3312;DHT22;1668;49.648;8.570;2023-04-01T15:45:36;11.70;1.00
3312;DHT22;1668;49.648;8.570;2023-04-01T15:48:18;11.60;1.00
3312;DHT22;1668;49.648;8.570;2023-04-01T15:51:02;11.70;1.00
3312;DHT22;1668;49.648;8.570;2023-04-01T15:54:02;11.70;1.00
3312;DHT22;1668;49.648;8.570;2023-04-01T15:56:49;11.60;1.00
3312;DHT22;1668;49.648;8.570;2023-04-01T15:59:28;11.70;13.10
3312;DHT22;1668;49.648;8.570;2023-04-01T16:02:09;11.70;1.00
3312;DHT22;1668;49.648;8.570;2023-04-01T16:04:48;11.70;1.00
3312;DHT22;1668;49.648;8.570;2023-04-01T16:07:29;11.70;1.00
3312;DHT22;1668;49.648;8.570;2023-04-01T16:10:08;11.70;1.00
3312;DHT22;1668;49.648;8.570;2023-04-01T16:12:47;11.70;1.00
3312;DHT22;1668;49.648;8.570;2023-04-01T16:15:24;11.70;1.00
3312;DHT22;1668;49.648;8.570;2023-04-01T16:18:13;11.70;1.00
3312;DHT22;1668;49.648;8.570;2023-04-01T16:20:47;11.60;1.00
3312;DHT22;1668;49.648;8.570;2023-04-01T16:23:22;11.60;1.00
3312;DHT22;1668;49.648;8.570;2023-04-01T16:25:54;11.60;1.00
3312;DHT22;1668;49.648;8.570;2023-04-01T16:28:28;11.60;99.90
3312;DHT22;1668;49.648;8.570;2023-04-01T16:30:59;11.60;99.90
3312;DHT22;1668;49.648;8.570;2023-04-01T16:33:35;11.60;1.00
3312;DHT22;1668;49.648;8.570;2023-04-01T16:36:10;11.60;1.00
3312;DHT22;1668;49.648;8.570;2023-04-01T16:38:43;11.60;99.90
3312;DHT22;1668;49.648;8.570;2023-04-01T16:41:16;11.50;1.00
3312;DHT22;1668;49.648;8.570;2023-04-01T16:43:45;11.60;50.50
3312;DHT22;1668;49.648;8.570;2023-04-01T16:46:26;11.50;1.00
3312;DHT22;1668;49.648;8.570;2023-04-01T16:49:30;11.50;1.00
3312;DHT22;1668;49.648;8.570;2023-04-01T16:52:13;11.50;1.00
3312;DHT22;1668;49.648;8.570;2023-04-01T16:54:46;11.50;1.00
3312;DHT22;1668;49.648;8.570;2023-04-01T16:57:20;11.50;99.90
3312;DHT22;1668;49.648;8.570;2023-04-01T16:59:55;11.50;1.00
3312;DHT22;1668;49.648;8.570;2023-04-01T17:02:27;11.50;1.00
3312;DHT22;1668;49.648;8.570;2023-04-01T17:05:00;11.50;99.90
3312;DHT22;1668;49.648;8.570;2023-04-01T17:07:41;11.40;99.20
3312;DHT22;1668;49.648;8.570;2023-04-01T17:10:36;11.40;99.90
3312;DHT22;1668;49.648;8.570;2023-04-01T17:16:26;11.40;1.00
3312;DHT22;1668;49.648;8.570;2023-04-01T17:19:02;11.40;99.90
3312;DHT22;1668;49.648;8.570;2023-04-01T17:21:47;11.40;99.90
3312;DHT22;1668;49.648;8.570;2023-04-01T17:24:28;11.30;40.60
3312;DHT22;1668;49.648;8.570;2023-04-01T17:27:06;11.30;1.00
3312;DHT22;1668;49.648;8.570;2023-04-01T17:29:53;11.30;99.90
3312;DHT22;1668;49.648;8.570;2023-04-01T17:32:30;11.30;92.40
3312;DHT22;1668;49.648;8.570;2023-04-01T17:35:06;11.30;1.00
3312;DHT22;1668;49.648;8.570;2023-04-01T17:37:45;11.20;1.00
3312;DHT22;1668;49.648;8.570;2023-04-01T17:40:27;11.20;84.30
3312;DHT22;1668;49.648;8.570;2023-04-01T17:43:05;11.20;1.00
3312;DHT22;1668;49.648;8.570;2023-04-01T17:45:41;11.20;2.80
3312;DHT22;1668;49.648;8.570;2023-04-01T17:48:17;11.20;6.10
3312;DHT22;1668;49.648;8.570;2023-04-01T17:50:55;11.20;99.90
3312;DHT22;1668;49.648;8.570;2023-04-01T17:53:36;11.20;1.00
3312;DHT22;1668;49.648;8.570;2023-04-01T17:56:14;11.20;52.90
3312;DHT22;1668;49.648;8.570;2023-04-01T17:58:46;11.10;99.90
3312;DHT22;1668;49.648;8.570;2023-04-01T18:01:34;11.10;13.00
3312;DHT22;1668;49.648;8.570;2023-04-01T18:07:38;11.10;1.00
3312;DHT22;1668;49.648;8.570;2023-04-01T18:10:20;11.00;1.00
3312;DHT22;1668;49.648;8.570;2023-04-01T18:13:23;11.00;11.10
3312;DHT22;1668;49.648;8.570;2023-04-01T18:16:02;11.00;99.90
3312;DHT22;1668;49.648;8.570;2023-04-01T18:18:42;11.00;99.90